Volendam — PCHM — position and weather

sailwx.info

Track history (hours):
 
Tides and Currents Weather Stations Pressure Air Temp Water Temp Dewpoint Dewpoint Depression Visibility Wind Speed Wind Dir Waves Ship Positions

Volendam

Operator: Holland America Line

Last reported at 2019-Jul-19 15:00 UTC. Time now 2019-Jul-19 18:50 UTC.
Position N 57°06' W 134°06'.

Type: Ship. MMSI: 245968000.

Wind from 020 at 7 knots

Barometer 1016.7 mb
Air temperature 11.9 ° C
Visibility: greater than 5.4 NM
Dewpoint 11.7 ° C
Water temperature 18.5 ° C

Date/timePositionNaut miles runAvg speedWind from/ knotsBaromVisibWave heightAir tempDewpointWater temp
2019-Jul-19 15:00N 57°06' W 134°06'4916.3 020 / 71016.7 5.4 11.911.718.5
2019-Jul-19 12:00N 56°18' W 134°24'1818.0 060 / 61015.010.8 11.911.719.5
2019-Jul-19 11:00N 56°00' W 134°24'3215.8 060 / 81015.0 5.4 11.911.719.2
2019-Jul-19 09:00N 55°30' W 134°06'1919.2 170 / 121015.0 5.4 13.813.320.8
2019-Jul-19 08:00N 55°12' W 133°54'7917.9 200 / 91015.0 5.4 13.813.323.0
2019-Jul-19 03:35N 54°27' W 132°02'220.3
2019-Jul-19 03:30N 54°27' W 131°59'1020.9
2019-Jul-19 03:00N 54°27' W 131°41'1020.7
2019-Jul-19 02:31N 54°25' W 131°24'1120.9
2019-Jul-19 02:00N 54°21' W 131°07'714.1
2019-Jul-19 01:30N 54°15' W 131°01'1020.7
2019-Jul-19 01:00N 54°05' W 131°00'5318.5
2019-Jul-19 01:00N 54°00' W 131°00'511.3 200 / 41014.6 5.4 15.312.819.2
2019-Jul-19 00:30N 53°55' W 130°58'1120.4
2019-Jul-18 23:59N 53°48' W 130°44'1020.5
2019-Jul-18 23:30N 53°41' W 130°31'1020.4
2019-Jul-18 23:00N 53°35' W 130°17'6520.8
2019-Jul-18 19:51N 52°45' W 129°07'821.9
2019-Jul-18 19:30N 52°40' W 128°59'1020.1
2019-Jul-18 19:00N 52°31' W 128°52'1020.6
2019-Jul-18 18:30N 52°20' W 128°49'1020.2
2019-Jul-18 18:00N 52°10' W 128°46'1020.5
2019-Jul-18 17:30N 52°01' W 128°42'1020.5
2019-Jul-18 17:00N 51°51' W 128°37'1020.3
2019-Jul-18 16:30N 51°41' W 128°33'1020.2
2019-Jul-18 16:00N 51°31' W 128°28'191233.9
2019-Jul-18 16:00N 51°12' W 128°30'1021.1 280 / 221014.0 5.4 14.412.617.9
2019-Jul-18 15:30N 51°22' W 128°24'1019.8
2019-Jul-18 15:00N 51°12' W 128°18'382428.9
2019-Jul-18 15:00N 51°12' W 127°18'3061.5 260 / 151014.010.8 14.212.417.2
2019-Jul-18 14:30N 51°06' W 128°05'1020.9
2019-Jul-18 14:00N 51°01' W 127°51'1121.3
2019-Jul-18 13:30N 50°54' W 127°38'1121.6
2019-Jul-18 13:00N 50°49' W 127°23'3204.8
2019-Jul-18 13:00N 50°48' W 127°18'815.7 220 / 141011.010.8 12.411.014.3
2019-Jul-18 12:30N 50°45' W 127°07'1020.6
2019-Jul-18 12:01N 50°41' W 126°52'1018.1
2019-Jul-18 11:26N 50°33' W 126°41'817.1
2019-Jul-18 11:00N 50°30' W 126°30'042.6
2019-Jul-18 11:00N 50°30' W 126°30'2423.7 300 / 91013.010.8 12.410.614.0
2019-Jul-18 10:00N 50°24' W 125°54'510.6 320 / 151013.010.8 12.910.313.3
2019-Jul-18 09:34N 50°23' W 125°47'420.0
2019-Jul-18 09:23N 50°22' W 125°42'819.1
2019-Jul-18 08:59N 50°21' W 125°30'612.4
2019-Jul-18 08:30N 50°16' W 125°24'816.6
2019-Jul-18 08:00N 50°08' W 125°21'3189.5
2019-Jul-18 08:00N 50°06' W 125°18'3 6.0 340 / 171012.010.8 14.310.711.9
2019-Jul-18 07:30N 50°04' W 125°15'612.2
2019-Jul-18 07:00N 49°58' W 125°11'510.4
2019-Jul-18 06:30N 49°55' W 125°05'611.1
2019-Jul-18 06:00N 49°51' W 124°58'612.4
2019-Jul-18 05:31N 49°47' W 124°51'713.5
2019-Jul-18 05:00N 49°43' W 124°43'612.5
2019-Jul-18 04:30N 49°39' W 124°35'713.3
2019-Jul-18 04:00N 49°35' W 124°26'612.5
2019-Jul-18 03:30N 49°33' W 124°18'612.1
2019-Jul-18 03:00N 49°30' W 124°10'612.7
2019-Jul-18 02:30N 49°26' W 124°01'713.8
2019-Jul-18 02:00N 49°24' W 123°51'714.0
2019-Jul-18 01:30N 49°22' W 123°41'713.8
2019-Jul-18 01:00N 49°20' W 123°31'4263.4
2019-Jul-18 01:00N 49°18' W 123°36'1021.5 080 / 101007.7 5.4 19.816.820.9
2019-Jul-18 00:30N 49°19' W 123°20'713.5
2019-Jul-18 00:00N 49°19' W 123°10'3 5.2
2019-Jul-17 23:28N 49°17' W 123°06'0 0.0
2019-Jul-17 22:58N 49°17' W 123°06'0 0.0
2019-Jul-17 22:25N 49°17' W 123°06'0 0.0
2019-Jul-17 21:58N 49°17' W 123°06'0 0.0
2019-Jul-17 21:28N 49°17' W 123°06'0 0.0
2019-Jul-17 20:58N 49°17' W 123°06'0 0.0
2019-Jul-17 20:28N 49°17' W 123°06'0 0.0
2019-Jul-17 19:58N 49°17' W 123°06'0 0.0
2019-Jul-17 19:25N 49°17' W 123°06'512.6
2019-Jul-17 19:00N 49°12' W 123°06'5255.9 200 / 81008.7 5.4 15.914.318.4
2019-Jul-17 18:58N 49°17' W 123°06'0 0.0
2019-Jul-17 18:28N 49°17' W 123°06'511.3
2019-Jul-17 18:00N 49°12' W 123°06'5255.9 200 / 81008.5 5.4 15.914.318.4
2019-Jul-17 17:58N 49°17' W 123°06'0 0.0
2019-Jul-17 17:28N 49°17' W 123°06'0 0.0
2019-Jul-17 16:58N 49°17' W 123°06'0 0.0
2019-Jul-17 16:28N 49°17' W 123°06'0 0.0
2019-Jul-17 15:58N 49°17' W 123°06'0 0.0
2019-Jul-17 15:28N 49°17' W 123°06'0 0.0
2019-Jul-17 14:58N 49°17' W 123°06'0 0.0
2019-Jul-17 14:28N 49°17' W 123°06'0 0.2
2019-Jul-17 14:00N 49°18' W 123°06'2 4.3
2019-Jul-17 13:30N 49°19' W 123°09'4 8.1
2019-Jul-17 13:00N 49°19' W 123°15'2131.1
2019-Jul-17 13:00N 49°18' W 123°12'613.0 120 / 161009.0 5.4 16.014.422.4
2019-Jul-17 12:30N 49°19' W 123°22'4 7.9
2019-Jul-17 12:00N 49°19' W 123°28'4 8.2
2019-Jul-17 11:30N 49°21' W 123°33'4 8.1
2019-Jul-17 11:00N 49°22' W 123°39'5286.5
2019-Jul-17 11:00N 49°18' W 123°36'816.3 170 / 141009.010.8 18.313.623.4
2019-Jul-17 10:30N 49°23' W 123°45'4 8.1
2019-Jul-17 10:00N 49°24' W 123°51'2130.1
2019-Jul-17 10:00N 49°24' W 123°48'612.7 170 / 61009.010.8 19.314.323.5
2019-Jul-17 09:30N 49°26' W 123°57'4 7.9
2019-Jul-17 09:00N 49°28' W 124°02'4264.5
2019-Jul-17 09:00N 49°24' W 124°00'816.9 230 / 181009.010.8 19.514.323.5
2019-Jul-17 08:30N 49°31' W 124°06'4 8.1
2019-Jul-17 08:00N 49°34' W 124°10'5309.5
2019-Jul-17 08:00N 49°30' W 124°06'918.0 250 / 101010.010.8 20.114.523.2
2019-Jul-17 07:28N 49°38' W 124°14'4 8.3
2019-Jul-17 07:00N 49°41' W 124°18'4 8.5
2019-Jul-17 06:30N 49°44' W 124°23'4 8.4
2019-Jul-17 06:00N 49°46' W 124°28'5 9.4
2019-Jul-17 05:30N 49°49' W 124°34'611.6
2019-Jul-17 05:01N 49°54' W 124°39'4 8.1
2019-Jul-17 04:31N 49°56' W 124°44'4 8.2
2019-Jul-17 04:00N 49°59' W 124°49'4 8.2
2019-Jul-17 03:31N 50°01' W 124°55'4 8.4
2019-Jul-17 03:00N 49°59' W 125°01'4 8.9
2019-Jul-17 02:30N 49°58' W 125°08'510.0
2019-Jul-17 02:00N 50°02' W 125°13'713.1
2019-Jul-17 01:31N 50°07' W 125°19'713.2
2019-Jul-17 01:00N 50°13' W 125°23'3214.0
2019-Jul-17 01:00N 50°12' W 125°18'919.2 150 / 141010.010.8 19.416.214.1
2019-Jul-17 00:30N 50°20' W 125°26'713.4
2019-Jul-17 00:00N 50°18' W 125°36'833.4 220 / 91011.010.8 18.317.312.3
2019-Jul-16 23:45N 50°22' W 125°47'4917.5
2019-Jul-16 20:58N 50°42' W 126°57'1418.9
2019-Jul-16 20:14N 50°47' W 127°17'418.9
2019-Jul-16 20:00N 50°49' W 127°23'1019.2
2019-Jul-16 19:30N 50°54' W 127°37'1020.9
2019-Jul-16 19:01N 50°60' W 127°50'1121.1
2019-Jul-16 18:30N 51°07' W 128°03'1020.7
2019-Jul-16 18:00N 51°12' W 128°17'1020.5
2019-Jul-16 17:30N 51°18' W 128°30'1020.2
2019-Jul-16 17:00N 51°25' W 128°43'917.3
2019-Jul-16 16:31N 51°31' W 128°51'917.5
2019-Jul-16 16:00N 51°40' W 128°53'917.9
2019-Jul-16 15:30N 51°47' W 129°03'918.4
2019-Jul-16 15:00N 51°54' W 129°13'7455.5
2019-Jul-16 15:00N 51°48' W 129°06'1633.8 190 / 41014.010.8 16.114.819.4
2019-Jul-16 14:30N 52°01' W 129°23'918.8
2019-Jul-16 14:00N 52°08' W 129°33'14873.2
2019-Jul-16 14:00N 52°18' W 129°48'4 9.1 190 / 41015.010.8 16.114.819.4
2019-Jul-16 13:30N 52°15' W 129°42'1019.4
2019-Jul-16 13:00N 52°24' W 129°51'6371.4
2019-Jul-16 13:00N 52°18' W 129°48'1531.7 190 / 41015.010.8 16.114.819.4
2019-Jul-16 12:30N 52°32' W 129°59'1019.2
2019-Jul-16 12:00N 52°40' W 130°08'1717.0
2019-Jul-16 11:00N 52°54' W 130°24'1323.8 190 / 41015.010.8 16.114.819.4
2019-Jul-16 10:27N 53°05' W 130°35'918.8
2019-Jul-16 10:00N 53°12' W 130°42'4421.4
2019-Jul-16 10:00N 53°12' W 130°36'1123.4 170 / 51015.010.8 16.114.819.4
2019-Jul-16 09:31N 53°22' W 130°46'1019.0
2019-Jul-16 09:00N 53°31' W 130°49'175.1
2019-Jul-16 09:00N 53°30' W 130°48'1021.6 110 / 21015.010.8 16.114.818.8
2019-Jul-16 08:30N 53°40' W 130°52'918.8
2019-Jul-16 08:00N 53°49' W 130°55'298.0
2019-Jul-16 08:00N 53°48' W 130°54'1122.1 340 / 71016.010.8 15.614.019.5
2019-Jul-16 07:30N 53°58' W 130°58'918.7
2019-Jul-16 07:01N 54°08' W 131°00'918.4
2019-Jul-16 06:30N 54°17' W 130°59'612.1
2019-Jul-16 06:00N 54°23' W 131°02'1019.4
2019-Jul-16 05:30N 54°30' W 131°13'919.0
2019-Jul-16 05:01N 54°37' W 131°25'917.9
2019-Jul-16 04:30N 54°44' W 131°35'817.0
2019-Jul-16 04:01N 54°51' W 131°40'27 3.4
2019-Jul-15 20:00N 55°18' W 131°36'0 0.0 130 / 61017.510.8 18.615.819.4
2019-Jul-15 18:00N 55°18' W 131°36'24 7.9 130 / 61017.810.8 16.615.018.4
2019-Jul-15 15:00N 55°30' W 132°12'1919.2 140 / 201017.010.8 14.914.617.2
2019-Jul-15 14:00N 55°48' W 132°24'3618.1 180 / 91017.010.8 14.914.617.2
2019-Jul-15 12:00N 56°18' W 133°00'1716.6 050 / 51017.010.8 12.612.413.9
2019-Jul-15 11:00N 56°18' W 133°30'1413.7 190 / 21017.010.8 12.912.612.9
2019-Jul-15 10:00N 56°06' W 133°42'1818.0 200 / 61018.010.8 12.712.211.8
2019-Jul-15 09:00N 55°54' W 134°06'5016.6 020 / 31018.510.8 13.112.811.8
2019-Jul-15 06:00N 56°42' W 134°30'1818.3 190 / 121016.510.8 12.010.912.0
2019-Jul-15 05:00N 57°00' W 134°36'1818.3 190 / 121016.510.8 12.010.912.0
2019-Jul-15 04:00N 57°18' W 134°42'5418.3 190 / 121016.510.8 12.010.912.0
2019-Jul-15 01:02N 58°09' W 135°15'117.8
2019-Jul-15 00:57N 58°10' W 135°17'817.8
2019-Jul-15 00:30N 58°14' W 135°30'918.0
2019-Jul-15 00:00N 58°18' W 135°45'714.7
2019-Jul-14 23:30N 58°22' W 135°57'611.6
2019-Jul-14 23:00N 58°27' W 136°01'714.5
2019-Jul-14 22:30N 58°34' W 136°04'714.3
2019-Jul-14 22:01N 58°41' W 136°07'918.7
2019-Jul-14 21:31N 58°46' W 136°22'1018.8
2019-Jul-14 20:59N 58°52' W 136°38'2 0.5
2019-Jul-14 16:24N 58°53' W 136°42'616.5
2019-Jul-14 16:00N 58°51' W 136°30'3209.6
2019-Jul-14 16:00N 58°48' W 136°30'611.4 350 / 101016.010.8 12.010.912.0
2019-Jul-14 15:30N 58°46' W 136°20'918.6
2019-Jul-14 15:00N 58°39' W 136°08'816.7
2019-Jul-14 14:30N 58°31' W 136°04'611.9
2019-Jul-14 14:00N 58°26' W 135°58'611.6
2019-Jul-14 13:30N 58°20' W 135°56'612.6
2019-Jul-14 13:00N 58°18' W 135°44'713.5
2019-Jul-14 12:30N 58°16' W 135°32'713.5
2019-Jul-14 12:00N 58°13' W 135°20'2226.2
2019-Jul-14 12:00N 58°12' W 135°18'711.2 330 / 121015.010.8 14.712.915.7
2019-Jul-14 11:25N 58°10' W 135°06'716.3
2019-Jul-14 11:00N 58°12' W 134°54'1212.4 210 / 101015.010.8 14.712.915.7
2019-Jul-14 10:00N 58°24' W 135°00'1212.4 180 / 131015.010.8 14.712.716.2
2019-Jul-14 09:00N 58°36' W 135°06'48 3.7 110 / 71015.010.8 15.412.716.8
2019-Jul-13 20:00N 59°24' W 135°18'0 0.0 220 / 81013.210.8 17.313.612.4
2019-Jul-13 16:00N 59°24' W 135°18'18 4.6 220 / 81014.010.8 16.314.111.8
2019-Jul-13 12:00N 59°06' W 135°12'1212.4 180 / 101014.010.8 15.114.620.7
2019-Jul-13 11:00N 58°54' W 135°06'1818.3 150 / 161015.010.8 14.814.321.5
2019-Jul-13 10:00N 58°36' W 135°00'1413.5 080 / 51015.010.8 13.612.821.3
2019-Jul-13 09:00N 58°24' W 134°48'14 2.0 150 / 91015.010.8 14.914.721.3
2019-Jul-13 02:00N 58°18' W 134°24'0 0.0 150 / 81016.0 5.4 16.313.815.3
2019-Jul-13 01:00N 58°18' W 134°24'36 5.1 150 / 41016.0 5.4 16.313.815.3
2019-Jul-12 18:00N 57°48' W 133°48'4314.4 130 / 91016.0 5.4 13.310.812.3
2019-Jul-12 15:00N 57°06' W 134°06'9616.0 280 / 91016.0 5.4 13.310.812.3
2019-Jul-12 09:00N 55°30' W 134°12'2120.7 170 / 91017.0 5.4 14.314.116.6
2019-Jul-12 08:00N 55°12' W 133°54'3417.0 180 / 61017.0 5.4 14.314.116.6
2019-Jul-12 06:00N 54°48' W 133°12'4315.8 210 / 91017.0 0.0 14.814.614.7
2019-Jul-12 03:16N 54°27' W 132°07'518.2
2019-Jul-12 03:00N 54°27' W 131°59'4247.8
2019-Jul-12 03:00N 54°24' W 131°54'714.1 270 / 121017.0 0.5 14.814.614.7
2019-Jul-12 02:30N 54°27' W 131°43'1818.1
2019-Jul-12 01:30N 54°23' W 131°13'817.0
2019-Jul-12 01:01N 54°19' W 130°60'3205.0
2019-Jul-12 01:00N 54°18' W 130°54'715.1 160 / 151017.710.8 14.814.315.2
2019-Jul-12 00:31N 54°12' W 131°01'918.6
2019-Jul-12 00:01N 54°03' W 130°59'4233.6
2019-Jul-12 00:00N 54°00' W 130°54'613.3 150 / 91018.010.8 14.814.315.2
2019-Jul-11 23:30N 53°54' W 130°55'1120.4
2019-Jul-11 22:59N 53°46' W 130°41'1021.4
2019-Jul-11 22:30N 53°40' W 130°28'713.7
2019-Jul-11 22:00N 53°36' W 130°18'5135.8 150 / 91020.010.8 15.414.318.5
2019-Jul-11 21:57N 53°34' W 130°11'2324.2
2019-Jul-11 21:00N 53°18' W 129°42'3719.6 130 / 81020.010.8 15.414.318.5
2019-Jul-11 19:07N 52°47' W 129°09'321.8
2019-Jul-11 19:00N 52°45' W 129°06'1320.7
2019-Jul-11 18:24N 52°35' W 128°53'821.2
2019-Jul-11 18:01N 52°27' W 128°51'1020.9
2019-Jul-11 17:30N 52°17' W 128°48'1121.2
2019-Jul-11 17:01N 52°07' W 128°44'1020.8
2019-Jul-11 16:30N 51°57' W 128°40'1020.8
2019-Jul-11 16:01N 51°47' W 128°35'1020.7
2019-Jul-11 15:30N 51°37' W 128°31'1020.7
2019-Jul-11 15:00N 51°27' W 128°26'3178.6
2019-Jul-11 15:00N 51°24' W 128°24'816.2 110 / 81018.010.8 15.414.318.5
2019-Jul-11 14:31N 51°16' W 128°22'1020.5
2019-Jul-11 14:01N 51°09' W 128°10'4239.1
2019-Jul-11 14:00N 51°06' W 128°06'713.6 120 / 61018.0 0.1 14.313.211.5
2019-Jul-11 13:30N 51°03' W 127°57'1019.1
2019-Jul-11 13:01N 50°58' W 127°44'1019.7
2019-Jul-11 12:30N 50°52' W 127°32'1319.4
2019-Jul-11 11:51N 50°46' W 127°14'919.3
2019-Jul-11 11:24N 50°43' W 127°01'1126.3
2019-Jul-11 11:00N 50°36' W 126°48'3416.5 350 / 11018.0 0.0 14.313.211.5
2019-Jul-11 08:56N 50°25' W 125°57'1019.7
2019-Jul-11 08:26N 50°22' W 125°43'1018.8
2019-Jul-11 07:54N 50°20' W 125°27'614.9
2019-Jul-11 07:31N 50°15' W 125°23'815.7
2019-Jul-11 07:00N 50°07' W 125°21'612.4
2019-Jul-11 06:30N 50°03' W 125°14'611.9
2019-Jul-11 06:00N 49°58' W 125°09'4295.1
2019-Jul-11 06:00N 49°54' W 125°06'3 6.2 280 / 81016.010.8 17.316.216.5
2019-Jul-11 05:30N 49°54' W 125°01'713.7
2019-Jul-11 05:00N 49°50' W 124°53'4248.0
2019-Jul-11 05:00N 49°48' W 124°48'3 7.0 120 / 141016.010.8 19.017.317.4
2019-Jul-11 04:30N 49°45' W 124°45'714.4
2019-Jul-11 04:01N 49°41' W 124°36'6376.9
2019-Jul-11 04:00N 49°36' W 124°30'2 3.3 130 / 181016.010.8 19.017.317.4
2019-Jul-11 03:31N 49°36' W 124°28'714.7
2019-Jul-11 03:00N 49°33' W 124°18'4270.6
2019-Jul-11 03:00N 49°30' W 124°12'4 8.3 150 / 121016.010.8 19.017.318.5
2019-Jul-11 02:30N 49°28' W 124°07'1019.5
2019-Jul-11 02:00N 49°25' W 123°52'1019.2
2019-Jul-11 01:30N 49°22' W 123°38'918.3
2019-Jul-11 01:00N 49°19' W 123°25'918.0
2019-Jul-11 00:30N 49°19' W 123°11'4 7.2
2019-Jul-11 00:01N 49°18' W 123°06'0 0.6
2019-Jul-10 23:29N 49°17' W 123°07'0 0.0
2019-Jul-10 22:59N 49°17' W 123°07'0 0.0
2019-Jul-10 22:29N 49°17' W 123°07'0 0.0
2019-Jul-10 21:59N 49°17' W 123°07'0 0.0
2019-Jul-10 21:29N 49°17' W 123°07'0 0.0
2019-Jul-10 20:59N 49°17' W 123°07'0 0.0
2019-Jul-10 20:29N 49°17' W 123°07'0 0.0
2019-Jul-10 19:59N 49°17' W 123°07'0 0.0
2019-Jul-10 19:29N 49°17' W 123°07'511.0
2019-Jul-10 19:00N 49°12' W 123°06'5458.3 080 / 51015.6 18.017.013.7
2019-Jul-10 18:59N 49°17' W 123°07'0 0.0
2019-Jul-10 18:29N 49°17' W 123°07'0 0.0
2019-Jul-10 17:59N 49°17' W 123°07'0 0.0
2019-Jul-10 17:29N 49°17' W 123°07'0 0.0
2019-Jul-10 16:59N 49°17' W 123°07'0 0.0
2019-Jul-10 16:29N 49°17' W 123°07'511.0
2019-Jul-10 16:00N 49°12' W 123°06'5470.0 080 / 51015.0 18.017.013.7
2019-Jul-10 15:59N 49°17' W 123°07'0 0.0
2019-Jul-10 15:29N 49°17' W 123°07'0 0.0
2019-Jul-10 14:59N 49°17' W 123°07'0 0.0
2019-Jul-10 14:29N 49°17' W 123°07'0 0.1
2019-Jul-10 14:00N 49°17' W 123°07'1 2.4
2019-Jul-10 13:30N 49°18' W 123°07'611.9
2019-Jul-10 13:00N 49°19' W 123°17'713.7
2019-Jul-10 12:30N 49°19' W 123°27'713.9
2019-Jul-10 12:00N 49°19' W 123°38'713.7
2019-Jul-10 11:30N 49°20' W 123°48'713.9
2019-Jul-10 11:00N 49°22' W 123°58'714.5
2019-Jul-10 10:31N 49°24' W 124°09'714.4
2019-Jul-10 10:00N 49°26' W 124°20'714.1
2019-Jul-10 09:31N 49°30' W 124°29'714.2
2019-Jul-10 09:00N 49°35' W 124°36'714.7
2019-Jul-10 08:30N 49°40' W 124°44'714.5
2019-Jul-10 08:00N 49°46' W 124°52'918.2
2019-Jul-10 07:30N 49°52' W 125°02'918.2
2019-Jul-10 07:00N 49°59' W 125°11'612.4
2019-Jul-10 06:30N 50°04' W 125°16'612.7
2019-Jul-10 06:00N 50°10' W 125°22'4288.1
2019-Jul-10 06:00N 50°06' W 125°18'1122.7 170 / 111015.010.8 16.815.112.6
2019-Jul-10 05:30N 50°16' W 125°24'612.4
2019-Jul-10 05:00N 50°21' W 125°31'3396.0
2019-Jul-10 05:00N 50°18' W 125°30'917.3 120 / 231015.010.8 18.214.912.6
2019-Jul-10 04:29N 50°22' W 125°42'611.7
2019-Jul-10 04:00N 50°18' W 125°48'1313.0 280 / 151015.010.8 14.613.110.8
2019-Jul-10 03:00N 50°24' W 126°06'2411.8 270 / 121015.010.8 14.613.311.1
2019-Jul-10 01:00N 50°30' W 126°42'1520.6 280 / 121018.010.8 13.512.711.0
2019-Jul-10 00:16N 50°42' W 126°56'715.4
2019-Jul-09 23:49N 50°44' W 127°06'1115.3
2019-Jul-09 23:07N 50°48' W 127°22'215.2
2019-Jul-09 22:59N 50°49' W 127°25'715.1
2019-Jul-09 22:30N 50°53' W 127°35'612.8
2019-Jul-09 22:00N 50°57' W 127°43'3256.3
2019-Jul-09 22:00N 50°54' W 127°42'817.1 290 / 121017.010.8 12.912.011.4
2019-Jul-09 21:30N 51°00' W 127°51'612.6
2019-Jul-09 21:01N 51°04' W 127°59'612.1
2019-Jul-09 20:30N 51°07' W 128°07'612.0
2019-Jul-09 20:00N 51°11' W 128°14'611.8
2019-Jul-09 19:31N 51°14' W 128°22'612.1
2019-Jul-09 19:00N 51°18' W 128°30'713.0
2019-Jul-09 18:30N 51°22' W 128°38'917.8
2019-Jul-09 18:00N 51°28' W 128°49'917.6
2019-Jul-09 17:30N 51°36' W 128°52'611.7
2019-Jul-09 17:00N 51°42' W 128°55'611.0
2019-Jul-09 16:30N 51°46' W 129°00'510.9
2019-Jul-09 16:00N 51°51' W 129°05'3180.0
2019-Jul-09 16:00N 51°48' W 129°06'919.2 110 / 41014.010.8 12.912.015.0
2019-Jul-09 15:30N 51°56' W 129°12'714.1
2019-Jul-09 15:00N 52°02' W 129°19'2141.5
2019-Jul-09 15:00N 52°00' W 129°18'   160 / 71014.010.8 13.012.115.0
Track history (hours):
 
Tides and Currents Weather Stations Pressure Air Temp Water Temp Dewpoint Dewpoint Depression Visibility Wind Speed Wind Dir Waves Ship Positions

Volendam

Operator: Holland America Line

Last reported at 2019-Jul-19 15:00 UTC. Time now 2019-Jul-19 18:50 UTC.
Position N 57°06' W 134°06'.

Type: Ship. MMSI: 245968000.

Wind from 020 at 7 knots

Barometer 1016.7 mb
Air temperature 11.9 ° C
Visibility: greater than 5.4 NM
Dewpoint 11.7 ° C
Water temperature 18.5 ° C

Date/timePositionNaut miles runAvg speedWind from/ knotsBaromVisibWave heightAir tempDewpointWater temp
2019-Jul-19 15:00N 57°06' W 134°06'4916.3 020 / 71016.7 5.4 11.911.718.5
2019-Jul-19 12:00N 56°18' W 134°24'1818.0 060 / 61015.010.8 11.911.719.5
2019-Jul-19 11:00N 56°00' W 134°24'3215.8 060 / 81015.0 5.4 11.911.719.2
2019-Jul-19 09:00N 55°30' W 134°06'1919.2 170 / 121015.0 5.4 13.813.320.8
2019-Jul-19 08:00N 55°12' W 133°54'7917.9 200 / 91015.0 5.4 13.813.323.0
2019-Jul-19 03:35N 54°27' W 132°02'220.3
2019-Jul-19 03:30N 54°27' W 131°59'1020.9
2019-Jul-19 03:00N 54°27' W 131°41'1020.7
2019-Jul-19 02:31N 54°25' W 131°24'1120.9
2019-Jul-19 02:00N 54°21' W 131°07'714.1
2019-Jul-19 01:30N 54°15' W 131°01'1020.7
2019-Jul-19 01:00N 54°05' W 131°00'5318.5
2019-Jul-19 01:00N 54°00' W 131°00'511.3 200 / 41014.6 5.4 15.312.819.2
2019-Jul-19 00:30N 53°55' W 130°58'1120.4
2019-Jul-18 23:59N 53°48' W 130°44'1020.5
2019-Jul-18 23:30N 53°41' W 130°31'1020.4
2019-Jul-18 23:00N 53°35' W 130°17'6520.8
2019-Jul-18 19:51N 52°45' W 129°07'821.9
2019-Jul-18 19:30N 52°40' W 128°59'1020.1
2019-Jul-18 19:00N 52°31' W 128°52'1020.6
2019-Jul-18 18:30N 52°20' W 128°49'1020.2
2019-Jul-18 18:00N 52°10' W 128°46'1020.5
2019-Jul-18 17:30N 52°01' W 128°42'1020.5
2019-Jul-18 17:00N 51°51' W 128°37'1020.3
2019-Jul-18 16:30N 51°41' W 128°33'1020.2
2019-Jul-18 16:00N 51°31' W 128°28'191233.9
2019-Jul-18 16:00N 51°12' W 128°30'1021.1 280 / 221014.0 5.4 14.412.617.9
2019-Jul-18 15:30N 51°22' W 128°24'1019.8
2019-Jul-18 15:00N 51°12' W 128°18'382428.9
2019-Jul-18 15:00N 51°12' W 127°18'3061.5 260 / 151014.010.8 14.212.417.2
2019-Jul-18 14:30N 51°06' W 128°05'1020.9
2019-Jul-18 14:00N 51°01' W 127°51'1121.3
2019-Jul-18 13:30N 50°54' W 127°38'1121.6
2019-Jul-18 13:00N 50°49' W 127°23'3204.8
2019-Jul-18 13:00N 50°48' W 127°18'815.7 220 / 141011.010.8 12.411.014.3
2019-Jul-18 12:30N 50°45' W 127°07'1020.6
2019-Jul-18 12:01N 50°41' W 126°52'1018.1
2019-Jul-18 11:26N 50°33' W 126°41'817.1
2019-Jul-18 11:00N 50°30' W 126°30'042.6
2019-Jul-18 11:00N 50°30' W 126°30'2423.7 300 / 91013.010.8 12.410.614.0
2019-Jul-18 10:00N 50°24' W 125°54'510.6 320 / 151013.010.8 12.910.313.3
2019-Jul-18 09:34N 50°23' W 125°47'420.0
2019-Jul-18 09:23N 50°22' W 125°42'819.1
2019-Jul-18 08:59N 50°21' W 125°30'612.4
2019-Jul-18 08:30N 50°16' W 125°24'816.6
2019-Jul-18 08:00N 50°08' W 125°21'3189.5
2019-Jul-18 08:00N 50°06' W 125°18'3 6.0 340 / 171012.010.8 14.310.711.9
2019-Jul-18 07:30N 50°04' W 125°15'612.2
2019-Jul-18 07:00N 49°58' W 125°11'510.4
2019-Jul-18 06:30N 49°55' W 125°05'611.1
2019-Jul-18 06:00N 49°51' W 124°58'612.4
2019-Jul-18 05:31N 49°47' W 124°51'713.5
2019-Jul-18 05:00N 49°43' W 124°43'612.5
2019-Jul-18 04:30N 49°39' W 124°35'713.3
2019-Jul-18 04:00N 49°35' W 124°26'612.5
2019-Jul-18 03:30N 49°33' W 124°18'612.1
2019-Jul-18 03:00N 49°30' W 124°10'612.7
2019-Jul-18 02:30N 49°26' W 124°01'713.8
2019-Jul-18 02:00N 49°24' W 123°51'714.0
2019-Jul-18 01:30N 49°22' W 123°41'713.8
2019-Jul-18 01:00N 49°20' W 123°31'4263.4
2019-Jul-18 01:00N 49°18' W 123°36'1021.5 080 / 101007.7 5.4 19.816.820.9
2019-Jul-18 00:30N 49°19' W 123°20'713.5
2019-Jul-18 00:00N 49°19' W 123°10'3 5.2
2019-Jul-17 23:28N 49°17' W 123°06'0 0.0
2019-Jul-17 22:58N 49°17' W 123°06'0 0.0
2019-Jul-17 22:25N 49°17' W 123°06'0 0.0
2019-Jul-17 21:58N 49°17' W 123°06'0 0.0
2019-Jul-17 21:28N 49°17' W 123°06'0 0.0
2019-Jul-17 20:58N 49°17' W 123°06'0 0.0
2019-Jul-17 20:28N 49°17' W 123°06'0 0.0
2019-Jul-17 19:58N 49°17' W 123°06'0 0.0
2019-Jul-17 19:25N 49°17' W 123°06'512.6
2019-Jul-17 19:00N 49°12' W 123°06'5255.9 200 / 81008.7 5.4 15.914.318.4
2019-Jul-17 18:58N 49°17' W 123°06'0 0.0
2019-Jul-17 18:28N 49°17' W 123°06'511.3
2019-Jul-17 18:00N 49°12' W 123°06'5255.9 200 / 81008.5 5.4 15.914.318.4
2019-Jul-17 17:58N 49°17' W 123°06'0 0.0
2019-Jul-17 17:28N 49°17' W 123°06'0 0.0
2019-Jul-17 16:58N 49°17' W 123°06'0 0.0
2019-Jul-17 16:28N 49°17' W 123°06'0 0.0
2019-Jul-17 15:58N 49°17' W 123°06'0 0.0
2019-Jul-17 15:28N 49°17' W 123°06'0 0.0
2019-Jul-17 14:58N 49°17' W 123°06'0 0.0
2019-Jul-17 14:28N 49°17' W 123°06'0 0.2
2019-Jul-17 14:00N 49°18' W 123°06'2 4.3
2019-Jul-17 13:30N 49°19' W 123°09'4 8.1
2019-Jul-17 13:00N 49°19' W 123°15'2131.1
2019-Jul-17 13:00N 49°18' W 123°12'613.0 120 / 161009.0 5.4 16.014.422.4
2019-Jul-17 12:30N 49°19' W 123°22'4 7.9
2019-Jul-17 12:00N 49°19' W 123°28'4 8.2
2019-Jul-17 11:30N 49°21' W 123°33'4 8.1
2019-Jul-17 11:00N 49°22' W 123°39'5286.5
2019-Jul-17 11:00N 49°18' W 123°36'816.3 170 / 141009.010.8 18.313.623.4
2019-Jul-17 10:30N 49°23' W 123°45'4 8.1
2019-Jul-17 10:00N 49°24' W 123°51'2130.1
2019-Jul-17 10:00N 49°24' W 123°48'612.7 170 / 61009.010.8 19.314.323.5
2019-Jul-17 09:30N 49°26' W 123°57'4 7.9
2019-Jul-17 09:00N 49°28' W 124°02'4264.5
2019-Jul-17 09:00N 49°24' W 124°00'816.9 230 / 181009.010.8 19.514.323.5
2019-Jul-17 08:30N 49°31' W 124°06'4 8.1
2019-Jul-17 08:00N 49°34' W 124°10'5309.5
2019-Jul-17 08:00N 49°30' W 124°06'918.0 250 / 101010.010.8 20.114.523.2
2019-Jul-17 07:28N 49°38' W 124°14'4 8.3
2019-Jul-17 07:00N 49°41' W 124°18'4 8.5
2019-Jul-17 06:30N 49°44' W 124°23'4 8.4
2019-Jul-17 06:00N 49°46' W 124°28'5 9.4
2019-Jul-17 05:30N 49°49' W 124°34'611.6
2019-Jul-17 05:01N 49°54' W 124°39'4 8.1
2019-Jul-17 04:31N 49°56' W 124°44'4 8.2
2019-Jul-17 04:00N 49°59' W 124°49'4 8.2
2019-Jul-17 03:31N 50°01' W 124°55'4 8.4
2019-Jul-17 03:00N 49°59' W 125°01'4 8.9
2019-Jul-17 02:30N 49°58' W 125°08'510.0
2019-Jul-17 02:00N 50°02' W 125°13'713.1
2019-Jul-17 01:31N 50°07' W 125°19'713.2
2019-Jul-17 01:00N 50°13' W 125°23'3214.0
2019-Jul-17 01:00N 50°12' W 125°18'919.2 150 / 141010.010.8 19.416.214.1
2019-Jul-17 00:30N 50°20' W 125°26'713.4
2019-Jul-17 00:00N 50°18' W 125°36'833.4 220 / 91011.010.8 18.317.312.3
2019-Jul-16 23:45N 50°22' W 125°47'4917.5
2019-Jul-16 20:58N 50°42' W 126°57'1418.9
2019-Jul-16 20:14N 50°47' W 127°17'418.9
2019-Jul-16 20:00N 50°49' W 127°23'1019.2
2019-Jul-16 19:30N 50°54' W 127°37'1020.9
2019-Jul-16 19:01N 50°60' W 127°50'1121.1
2019-Jul-16 18:30N 51°07' W 128°03'1020.7
2019-Jul-16 18:00N 51°12' W 128°17'1020.5
2019-Jul-16 17:30N 51°18' W 128°30'1020.2
2019-Jul-16 17:00N 51°25' W 128°43'917.3
2019-Jul-16 16:31N 51°31' W 128°51'917.5
2019-Jul-16 16:00N 51°40' W 128°53'917.9
2019-Jul-16 15:30N 51°47' W 129°03'918.4
2019-Jul-16 15:00N 51°54' W 129°13'7455.5
2019-Jul-16 15:00N 51°48' W 129°06'1633.8 190 / 41014.010.8 16.114.819.4
2019-Jul-16 14:30N 52°01' W 129°23'918.8
2019-Jul-16 14:00N 52°08' W 129°33'14873.2
2019-Jul-16 14:00N 52°18' W 129°48'4 9.1 190 / 41015.010.8 16.114.819.4
2019-Jul-16 13:30N 52°15' W 129°42'1019.4
2019-Jul-16 13:00N 52°24' W 129°51'6371.4
2019-Jul-16 13:00N 52°18' W 129°48'1531.7 190 / 41015.010.8 16.114.819.4
2019-Jul-16 12:30N 52°32' W 129°59'1019.2
2019-Jul-16 12:00N 52°40' W 130°08'1717.0
2019-Jul-16 11:00N 52°54' W 130°24'1323.8 190 / 41015.010.8 16.114.819.4
2019-Jul-16 10:27N 53°05' W 130°35'918.8
2019-Jul-16 10:00N 53°12' W 130°42'4421.4
2019-Jul-16 10:00N 53°12' W 130°36'1123.4 170 / 51015.010.8 16.114.819.4
2019-Jul-16 09:31N 53°22' W 130°46'1019.0
2019-Jul-16 09:00N 53°31' W 130°49'175.1
2019-Jul-16 09:00N 53°30' W 130°48'1021.6 110 / 21015.010.8 16.114.818.8
2019-Jul-16 08:30N 53°40' W 130°52'918.8
2019-Jul-16 08:00N 53°49' W 130°55'298.0
2019-Jul-16 08:00N 53°48' W 130°54'1122.1 340 / 71016.010.8 15.614.019.5
2019-Jul-16 07:30N 53°58' W 130°58'918.7
2019-Jul-16 07:01N 54°08' W 131°00'918.4
2019-Jul-16 06:30N 54°17' W 130°59'612.1
2019-Jul-16 06:00N 54°23' W 131°02'1019.4
2019-Jul-16 05:30N 54°30' W 131°13'919.0
2019-Jul-16 05:01N 54°37' W 131°25'917.9
2019-Jul-16 04:30N 54°44' W 131°35'817.0
2019-Jul-16 04:01N 54°51' W 131°40'27 3.4
2019-Jul-15 20:00N 55°18' W 131°36'0 0.0 130 / 61017.510.8 18.615.819.4
2019-Jul-15 18:00N 55°18' W 131°36'24 7.9 130 / 61017.810.8 16.615.018.4
2019-Jul-15 15:00N 55°30' W 132°12'1919.2 140 / 201017.010.8 14.914.617.2
2019-Jul-15 14:00N 55°48' W 132°24'3618.1 180 / 91017.010.8 14.914.617.2
2019-Jul-15 12:00N 56°18' W 133°00'1716.6 050 / 51017.010.8 12.612.413.9
2019-Jul-15 11:00N 56°18' W 133°30'1413.7 190 / 21017.010.8 12.912.612.9
2019-Jul-15 10:00N 56°06' W 133°42'1818.0 200 / 61018.010.8 12.712.211.8
2019-Jul-15 09:00N 55°54' W 134°06'5016.6 020 / 31018.510.8 13.112.811.8
2019-Jul-15 06:00N 56°42' W 134°30'1818.3 190 / 121016.510.8 12.010.912.0
2019-Jul-15 05:00N 57°00' W 134°36'1818.3 190 / 121016.510.8 12.010.912.0
2019-Jul-15 04:00N 57°18' W 134°42'5418.3 190 / 121016.510.8 12.010.912.0
2019-Jul-15 01:02N 58°09' W 135°15'117.8
2019-Jul-15 00:57N 58°10' W 135°17'817.8
2019-Jul-15 00:30N 58°14' W 135°30'918.0
2019-Jul-15 00:00N 58°18' W 135°45'714.7
2019-Jul-14 23:30N 58°22' W 135°57'611.6
2019-Jul-14 23:00N 58°27' W 136°01'714.5
2019-Jul-14 22:30N 58°34' W 136°04'714.3
2019-Jul-14 22:01N 58°41' W 136°07'918.7
2019-Jul-14 21:31N 58°46' W 136°22'1018.8
2019-Jul-14 20:59N 58°52' W 136°38'2 0.5
2019-Jul-14 16:24N 58°53' W 136°42'616.5
2019-Jul-14 16:00N 58°51' W 136°30'3209.6
2019-Jul-14 16:00N 58°48' W 136°30'611.4 350 / 101016.010.8 12.010.912.0
2019-Jul-14 15:30N 58°46' W 136°20'918.6
2019-Jul-14 15:00N 58°39' W 136°08'816.7
2019-Jul-14 14:30N 58°31' W 136°04'611.9
2019-Jul-14 14:00N 58°26' W 135°58'611.6
2019-Jul-14 13:30N 58°20' W 135°56'612.6
2019-Jul-14 13:00N 58°18' W 135°44'713.5
2019-Jul-14 12:30N 58°16' W 135°32'713.5
2019-Jul-14 12:00N 58°13' W 135°20'2226.2
2019-Jul-14 12:00N 58°12' W 135°18'711.2 330 / 121015.010.8 14.712.915.7
2019-Jul-14 11:25N 58°10' W 135°06'716.3
2019-Jul-14 11:00N 58°12' W 134°54'1212.4 210 / 101015.010.8 14.712.915.7
2019-Jul-14 10:00N 58°24' W 135°00'1212.4 180 / 131015.010.8 14.712.716.2
2019-Jul-14 09:00N 58°36' W 135°06'48 3.7 110 / 71015.010.8 15.412.716.8
2019-Jul-13 20:00N 59°24' W 135°18'0 0.0 220 / 81013.210.8 17.313.612.4
2019-Jul-13 16:00N 59°24' W 135°18'18 4.6 220 / 81014.010.8 16.314.111.8
2019-Jul-13 12:00N 59°06' W 135°12'1212.4 180 / 101014.010.8 15.114.620.7
2019-Jul-13 11:00N 58°54' W 135°06'1818.3 150 / 161015.010.8 14.814.321.5
2019-Jul-13 10:00N 58°36' W 135°00'1413.5 080 / 51015.010.8 13.612.821.3
2019-Jul-13 09:00N 58°24' W 134°48'14 2.0 150 / 91015.010.8 14.914.721.3
2019-Jul-13 02:00N 58°18' W 134°24'0 0.0 150 / 81016.0 5.4 16.313.815.3
2019-Jul-13 01:00N 58°18' W 134°24'36 5.1 150 / 41016.0 5.4 16.313.815.3
2019-Jul-12 18:00N 57°48' W 133°48'4314.4 130 / 91016.0 5.4 13.310.812.3
2019-Jul-12 15:00N 57°06' W 134°06'9616.0 280 / 91016.0 5.4 13.310.812.3
2019-Jul-12 09:00N 55°30' W 134°12'2120.7 170 / 91017.0 5.4 14.314.116.6
2019-Jul-12 08:00N 55°12' W 133°54'3417.0 180 / 61017.0 5.4 14.314.116.6
2019-Jul-12 06:00N 54°48' W 133°12'4315.8 210 / 91017.0 0.0 14.814.614.7
2019-Jul-12 03:16N 54°27' W 132°07'518.2
2019-Jul-12 03:00N 54°27' W 131°59'4247.8
2019-Jul-12 03:00N 54°24' W 131°54'714.1 270 / 121017.0 0.5 14.814.614.7
2019-Jul-12 02:30N 54°27' W 131°43'1818.1
2019-Jul-12 01:30N 54°23' W 131°13'817.0
2019-Jul-12 01:01N 54°19' W 130°60'3205.0
2019-Jul-12 01:00N 54°18' W 130°54'715.1 160 / 151017.710.8 14.814.315.2
2019-Jul-12 00:31N 54°12' W 131°01'918.6
2019-Jul-12 00:01N 54°03' W 130°59'4233.6
2019-Jul-12 00:00N 54°00' W 130°54'613.3 150 / 91018.010.8 14.814.315.2
2019-Jul-11 23:30N 53°54' W 130°55'1120.4
2019-Jul-11 22:59N 53°46' W 130°41'1021.4
2019-Jul-11 22:30N 53°40' W 130°28'713.7
2019-Jul-11 22:00N 53°36' W 130°18'5135.8 150 / 91020.010.8 15.414.318.5
2019-Jul-11 21:57N 53°34' W 130°11'2324.2
2019-Jul-11 21:00N 53°18' W 129°42'3719.6 130 / 81020.010.8 15.414.318.5
2019-Jul-11 19:07N 52°47' W 129°09'321.8
2019-Jul-11 19:00N 52°45' W 129°06'1320.7
2019-Jul-11 18:24N 52°35' W 128°53'821.2
2019-Jul-11 18:01N 52°27' W 128°51'1020.9
2019-Jul-11 17:30N 52°17' W 128°48'1121.2
2019-Jul-11 17:01N 52°07' W 128°44'1020.8
2019-Jul-11 16:30N 51°57' W 128°40'1020.8
2019-Jul-11 16:01N 51°47' W 128°35'1020.7
2019-Jul-11 15:30N 51°37' W 128°31'1020.7
2019-Jul-11 15:00N 51°27' W 128°26'3178.6
2019-Jul-11 15:00N 51°24' W 128°24'816.2 110 / 81018.010.8 15.414.318.5
2019-Jul-11 14:31N 51°16' W 128°22'1020.5
2019-Jul-11 14:01N 51°09' W 128°10'4239.1
2019-Jul-11 14:00N 51°06' W 128°06'713.6 120 / 61018.0 0.1 14.313.211.5
2019-Jul-11 13:30N 51°03' W 127°57'1019.1
2019-Jul-11 13:01N 50°58' W 127°44'1019.7
2019-Jul-11 12:30N 50°52' W 127°32'1319.4
2019-Jul-11 11:51N 50°46' W 127°14'919.3
2019-Jul-11 11:24N 50°43' W 127°01'1126.3
2019-Jul-11 11:00N 50°36' W 126°48'3416.5 350 / 11018.0 0.0 14.313.211.5
2019-Jul-11 08:56N 50°25' W 125°57'1019.7
2019-Jul-11 08:26N 50°22' W 125°43'1018.8
2019-Jul-11 07:54N 50°20' W 125°27'614.9
2019-Jul-11 07:31N 50°15' W 125°23'815.7
2019-Jul-11 07:00N 50°07' W 125°21'612.4
2019-Jul-11 06:30N 50°03' W 125°14'611.9
2019-Jul-11 06:00N 49°58' W 125°09'4295.1
2019-Jul-11 06:00N 49°54' W 125°06'3 6.2 280 / 81016.010.8 17.316.216.5
2019-Jul-11 05:30N 49°54' W 125°01'713.7
2019-Jul-11 05:00N 49°50' W 124°53'4248.0
2019-Jul-11 05:00N 49°48' W 124°48'3 7.0 120 / 141016.010.8 19.017.317.4
2019-Jul-11 04:30N 49°45' W 124°45'714.4
2019-Jul-11 04:01N 49°41' W 124°36'6376.9
2019-Jul-11 04:00N 49°36' W 124°30'2 3.3 130 / 181016.010.8 19.017.317.4
2019-Jul-11 03:31N 49°36' W 124°28'714.7
2019-Jul-11 03:00N 49°33' W 124°18'4270.6
2019-Jul-11 03:00N 49°30' W 124°12'4 8.3 150 / 121016.010.8 19.017.318.5
2019-Jul-11 02:30N 49°28' W 124°07'1019.5
2019-Jul-11 02:00N 49°25' W 123°52'1019.2
2019-Jul-11 01:30N 49°22' W 123°38'918.3
2019-Jul-11 01:00N 49°19' W 123°25'918.0
2019-Jul-11 00:30N 49°19' W 123°11'4 7.2
2019-Jul-11 00:01N 49°18' W 123°06'0 0.6
2019-Jul-10 23:29N 49°17' W 123°07'0 0.0
2019-Jul-10 22:59N 49°17' W 123°07'0 0.0
2019-Jul-10 22:29N 49°17' W 123°07'0 0.0
2019-Jul-10 21:59N 49°17' W 123°07'0 0.0
2019-Jul-10 21:29N 49°17' W 123°07'0 0.0
2019-Jul-10 20:59N 49°17' W 123°07'0 0.0
2019-Jul-10 20:29N 49°17' W 123°07'0 0.0
2019-Jul-10 19:59N 49°17' W 123°07'0 0.0
2019-Jul-10 19:29N 49°17' W 123°07'511.0
2019-Jul-10 19:00N 49°12' W 123°06'5458.3 080 / 51015.6 18.017.013.7
2019-Jul-10 18:59N 49°17' W 123°07'0 0.0
2019-Jul-10 18:29N 49°17' W 123°07'0 0.0
2019-Jul-10 17:59N 49°17' W 123°07'0 0.0
2019-Jul-10 17:29N 49°17' W 123°07'0 0.0
2019-Jul-10 16:59N 49°17' W 123°07'0 0.0
2019-Jul-10 16:29N 49°17' W 123°07'511.0
2019-Jul-10 16:00N 49°12' W 123°06'5470.0 080 / 51015.0 18.017.013.7
2019-Jul-10 15:59N 49°17' W 123°07'0 0.0
2019-Jul-10 15:29N 49°17' W 123°07'0 0.0
2019-Jul-10 14:59N 49°17' W 123°07'0 0.0
2019-Jul-10 14:29N 49°17' W 123°07'0 0.1
2019-Jul-10 14:00N 49°17' W 123°07'1 2.4
2019-Jul-10 13:30N 49°18' W 123°07'611.9
2019-Jul-10 13:00N 49°19' W 123°17'713.7
2019-Jul-10 12:30N 49°19' W 123°27'713.9
2019-Jul-10 12:00N 49°19' W 123°38'713.7
2019-Jul-10 11:30N 49°20' W 123°48'713.9
2019-Jul-10 11:00N 49°22' W 123°58'714.5
2019-Jul-10 10:31N 49°24' W 124°09'714.4
2019-Jul-10 10:00N 49°26' W 124°20'714.1
2019-Jul-10 09:31N 49°30' W 124°29'714.2
2019-Jul-10 09:00N 49°35' W 124°36'714.7
2019-Jul-10 08:30N 49°40' W 124°44'714.5
2019-Jul-10 08:00N 49°46' W 124°52'918.2
2019-Jul-10 07:30N 49°52' W 125°02'918.2
2019-Jul-10 07:00N 49°59' W 125°11'612.4
2019-Jul-10 06:30N 50°04' W 125°16'612.7
2019-Jul-10 06:00N 50°10' W 125°22'4288.1
2019-Jul-10 06:00N 50°06' W 125°18'1122.7 170 / 111015.010.8 16.815.112.6
2019-Jul-10 05:30N 50°16' W 125°24'612.4
2019-Jul-10 05:00N 50°21' W 125°31'3396.0
2019-Jul-10 05:00N 50°18' W 125°30'917.3 120 / 231015.010.8 18.214.912.6
2019-Jul-10 04:29N 50°22' W 125°42'611.7
2019-Jul-10 04:00N 50°18' W 125°48'1313.0 280 / 151015.010.8 14.613.110.8
2019-Jul-10 03:00N 50°24' W 126°06'2411.8 270 / 121015.010.8 14.613.311.1
2019-Jul-10 01:00N 50°30' W 126°42'1520.6 280 / 121018.010.8 13.512.711.0
2019-Jul-10 00:16N 50°42' W 126°56'715.4
2019-Jul-09 23:49N 50°44' W 127°06'1115.3
2019-Jul-09 23:07N 50°48' W 127°22'215.2
2019-Jul-09 22:59N 50°49' W 127°25'715.1
2019-Jul-09 22:30N 50°53' W 127°35'612.8
2019-Jul-09 22:00N 50°57' W 127°43'3256.3
2019-Jul-09 22:00N 50°54' W 127°42'817.1 290 / 121017.010.8 12.912.011.4
2019-Jul-09 21:30N 51°00' W 127°51'612.6
2019-Jul-09 21:01N 51°04' W 127°59'612.1
2019-Jul-09 20:30N 51°07' W 128°07'612.0
2019-Jul-09 20:00N 51°11' W 128°14'611.8
2019-Jul-09 19:31N 51°14' W 128°22'612.1
2019-Jul-09 19:00N 51°18' W 128°30'713.0
2019-Jul-09 18:30N 51°22' W 128°38'917.8
2019-Jul-09 18:00N 51°28' W 128°49'917.6
2019-Jul-09 17:30N 51°36' W 128°52'611.7
2019-Jul-09 17:00N 51°42' W 128°55'611.0
2019-Jul-09 16:30N 51°46' W 129°00'510.9
2019-Jul-09 16:00N 51°51' W 129°05'3180.0
2019-Jul-09 16:00N 51°48' W 129°06'919.2 110 / 41014.010.8 12.912.015.0
2019-Jul-09 15:30N 51°56' W 129°12'714.1
2019-Jul-09 15:00N 52°02' W 129°19'2141.5
2019-Jul-09 15:00N 52°00' W 129°18'   160 / 71014.010.8 13.012.115.0

Dump ship's entire track history